sensor_id;sensor_type;location;lat;lon;timestamp;P1;durP1;ratioP1;P2;durP2;ratioP2
31674;SDS011;18276;45.520;11.018;2022-11-20T00:00:54;8.15;;;4.78;;
31674;SDS011;18276;45.520;11.018;2022-11-20T00:03:21;9.23;;;4.45;;
31674;SDS011;18276;45.520;11.018;2022-11-20T00:05:48;10.32;;;4.55;;
31674;SDS011;18276;45.520;11.018;2022-11-20T00:08:15;10.25;;;4.40;;
31674;SDS011;18276;45.520;11.018;2022-11-20T00:10:42;8.13;;;4.20;;
31674;SDS011;18276;45.520;11.018;2022-11-20T00:13:09;8.02;;;4.97;;
31674;SDS011;18276;45.520;11.018;2022-11-20T00:15:36;8.90;;;4.03;;
31674;SDS011;18276;45.520;11.018;2022-11-20T00:18:03;10.93;;;4.68;;
31674;SDS011;18276;45.520;11.018;2022-11-20T00:20:30;7.57;;;4.30;;
31674;SDS011;18276;45.520;11.018;2022-11-20T00:22:57;9.95;;;4.03;;
31674;SDS011;18276;45.520;11.018;2022-11-20T00:25:24;6.35;;;3.78;;
31674;SDS011;18276;45.520;11.018;2022-11-20T00:27:51;8.20;;;3.83;;
31674;SDS011;18276;45.520;11.018;2022-11-20T00:30:18;5.97;;;4.20;;
31674;SDS011;18276;45.520;11.018;2022-11-20T00:32:45;6.90;;;3.92;;
31674;SDS011;18276;45.520;11.018;2022-11-20T00:35:12;7.85;;;4.38;;
31674;SDS011;18276;45.520;11.018;2022-11-20T00:37:39;5.85;;;3.80;;
31674;SDS011;18276;45.520;11.018;2022-11-20T00:40:06;8.15;;;4.20;;
31674;SDS011;18276;45.520;11.018;2022-11-20T00:42:34;5.95;;;3.83;;
31674;SDS011;18276;45.520;11.018;2022-11-20T00:45:01;6.88;;;3.58;;
31674;SDS011;18276;45.520;11.018;2022-11-20T00:47:28;7.13;;;3.63;;
31674;SDS011;18276;45.520;11.018;2022-11-20T00:49:55;4.88;;;3.15;;
31674;SDS011;18276;45.520;11.018;2022-11-20T00:52:22;6.82;;;3.67;;
31674;SDS011;18276;45.520;11.018;2022-11-20T00:54:49;8.77;;;4.07;;
31674;SDS011;18276;45.520;11.018;2022-11-20T00:57:16;8.68;;;3.80;;
31674;SDS011;18276;45.520;11.018;2022-11-20T00:59:43;7.88;;;3.78;;
31674;SDS011;18276;45.520;11.018;2022-11-20T01:02:10;5.47;;;3.58;;
31674;SDS011;18276;45.520;11.018;2022-11-20T01:04:37;5.78;;;3.85;;
31674;SDS011;18276;45.520;11.018;2022-11-20T01:07:03;4.95;;;3.10;;
31674;SDS011;18276;45.520;11.018;2022-11-20T01:09:31;7.72;;;3.38;;
31674;SDS011;18276;45.520;11.018;2022-11-20T01:11:57;3.85;;;2.90;;
31674;SDS011;18276;45.520;11.018;2022-11-20T01:14:25;4.63;;;2.88;;
31674;SDS011;18276;45.520;11.018;2022-11-20T01:16:52;6.72;;;3.80;;
31674;SDS011;18276;45.520;11.018;2022-11-20T01:19:20;6.18;;;3.65;;
31674;SDS011;18276;45.520;11.018;2022-11-20T01:21:51;6.82;;;3.60;;
31674;SDS011;18276;45.520;11.018;2022-11-20T01:24:20;5.93;;;3.28;;
31674;SDS011;18276;45.520;11.018;2022-11-20T01:26:49;5.88;;;3.20;;
31674;SDS011;18276;45.520;11.018;2022-11-20T01:29:26;6.72;;;3.33;;
31674;SDS011;18276;45.520;11.018;2022-11-20T01:31:53;6.93;;;3.47;;
31674;SDS011;18276;45.520;11.018;2022-11-20T01:34:21;7.25;;;3.50;;
31674;SDS011;18276;45.520;11.018;2022-11-20T01:36:49;4.85;;;3.08;;
31674;SDS011;18276;45.520;11.018;2022-11-20T01:39:25;7.78;;;3.28;;
31674;SDS011;18276;45.520;11.018;2022-11-20T01:41:53;4.53;;;3.10;;
31674;SDS011;18276;45.520;11.018;2022-11-20T01:44:56;7.00;;;3.60;;
31674;SDS011;18276;45.520;11.018;2022-11-20T01:50:43;5.53;;;3.05;;
31674;SDS011;18276;45.520;11.018;2022-11-20T01:52:54;7.90;;;2.55;;
31674;SDS011;18276;45.520;11.018;2022-11-20T01:55:25;6.20;;;2.53;;
31674;SDS011;18276;45.520;11.018;2022-11-20T01:58:04;4.55;;;3.00;;
31674;SDS011;18276;45.520;11.018;2022-11-20T02:00:32;5.70;;;2.78;;
31674;SDS011;18276;45.520;11.018;2022-11-20T02:03:03;8.18;;;2.90;;
31674;SDS011;18276;45.520;11.018;2022-11-20T02:08:39;4.63;;;2.30;;
31674;SDS011;18276;45.520;11.018;2022-11-20T02:11:06;4.55;;;2.33;;
31674;SDS011;18276;45.520;11.018;2022-11-20T02:13:33;7.05;;;2.85;;
31674;SDS011;18276;45.520;11.018;2022-11-20T02:16:23;5.53;;;2.42;;
31674;SDS011;18276;45.520;11.018;2022-11-20T02:18:51;5.32;;;3.05;;
31674;SDS011;18276;45.520;11.018;2022-11-20T02:29:27;4.70;;;2.47;;
31674;SDS011;18276;45.520;11.018;2022-11-20T02:32:22;3.95;;;2.42;;
31674;SDS011;18276;45.520;11.018;2022-11-20T02:34:50;4.60;;;2.30;;
31674;SDS011;18276;45.520;11.018;2022-11-20T02:37:17;3.63;;;2.33;;
31674;SDS011;18276;45.520;11.018;2022-11-20T02:39:46;4.00;;;2.25;;
31674;SDS011;18276;45.520;11.018;2022-11-20T02:42:15;3.78;;;1.95;;
31674;SDS011;18276;45.520;11.018;2022-11-20T02:44:42;4.45;;;2.35;;
31674;SDS011;18276;45.520;11.018;2022-11-20T02:47:09;4.30;;;2.20;;
31674;SDS011;18276;45.520;11.018;2022-11-20T02:49:36;5.70;;;2.72;;
31674;SDS011;18276;45.520;11.018;2022-11-20T02:52:03;3.70;;;2.35;;
31674;SDS011;18276;45.520;11.018;2022-11-20T02:54:30;3.72;;;2.35;;
31674;SDS011;18276;45.520;11.018;2022-11-20T02:56:58;4.15;;;2.35;;
31674;SDS011;18276;45.520;11.018;2022-11-20T02:59:25;4.78;;;2.40;;
31674;SDS011;18276;45.520;11.018;2022-11-20T03:01:53;4.13;;;2.35;;
31674;SDS011;18276;45.520;11.018;2022-11-20T03:04:20;5.70;;;2.30;;
31674;SDS011;18276;45.520;11.018;2022-11-20T03:06:47;6.50;;;2.70;;
31674;SDS011;18276;45.520;11.018;2022-11-20T03:09:14;5.45;;;3.00;;
31674;SDS011;18276;45.520;11.018;2022-11-20T03:11:41;4.75;;;2.63;;
31674;SDS011;18276;45.520;11.018;2022-11-20T03:14:08;3.58;;;2.25;;
31674;SDS011;18276;45.520;11.018;2022-11-20T03:16:35;4.07;;;2.42;;
31674;SDS011;18276;45.520;11.018;2022-11-20T03:19:02;5.20;;;2.20;;
31674;SDS011;18276;45.520;11.018;2022-11-20T03:21:29;4.18;;;2.55;;
31674;SDS011;18276;45.520;11.018;2022-11-20T03:23:56;3.63;;;2.10;;
31674;SDS011;18276;45.520;11.018;2022-11-20T03:26:24;3.78;;;1.92;;
31674;SDS011;18276;45.520;11.018;2022-11-20T03:28:53;2.85;;;1.98;;
31674;SDS011;18276;45.520;11.018;2022-11-20T03:31:30;2.95;;;2.10;;
31674;SDS011;18276;45.520;11.018;2022-11-20T03:34:03;5.47;;;1.90;;
31674;SDS011;18276;45.520;11.018;2022-11-20T03:36:30;5.70;;;2.05;;
31674;SDS011;18276;45.520;11.018;2022-11-20T03:38:57;4.88;;;2.00;;
31674;SDS011;18276;45.520;11.018;2022-11-20T03:41:26;3.72;;;1.80;;
31674;SDS011;18276;45.520;11.018;2022-11-20T03:43:58;3.45;;;1.60;;
31674;SDS011;18276;45.520;11.018;2022-11-20T03:46:27;4.10;;;1.70;;
31674;SDS011;18276;45.520;11.018;2022-11-20T03:48:55;2.88;;;1.60;;
31674;SDS011;18276;45.520;11.018;2022-11-20T03:51:23;2.88;;;1.75;;
31674;SDS011;18276;45.520;11.018;2022-11-20T03:53:56;2.67;;;1.70;;
31674;SDS011;18276;45.520;11.018;2022-11-20T03:56:26;2.58;;;1.70;;
31674;SDS011;18276;45.520;11.018;2022-11-20T03:58:57;3.33;;;1.50;;
31674;SDS011;18276;45.520;11.018;2022-11-20T04:01:29;2.40;;;1.60;;
31674;SDS011;18276;45.520;11.018;2022-11-20T04:03:59;4.13;;;1.30;;
31674;SDS011;18276;45.520;11.018;2022-11-20T04:06:27;2.50;;;1.40;;
31674;SDS011;18276;45.520;11.018;2022-11-20T04:09:00;9.85;;;1.70;;
31674;SDS011;18276;45.520;11.018;2022-11-20T04:11:28;2.80;;;1.20;;
31674;SDS011;18276;45.520;11.018;2022-11-20T04:13:58;2.80;;;1.50;;
31674;SDS011;18276;45.520;11.018;2022-11-20T04:16:31;5.15;;;1.38;;
31674;SDS011;18276;45.520;11.018;2022-11-20T04:19:01;3.58;;;1.80;;
31674;SDS011;18276;45.520;11.018;2022-11-20T04:21:30;5.15;;;2.72;;
31674;SDS011;18276;45.520;11.018;2022-11-20T04:23:57;3.00;;;1.60;;
31674;SDS011;18276;45.520;11.018;2022-11-20T04:26:25;4.05;;;1.45;;
31674;SDS011;18276;45.520;11.018;2022-11-20T04:28:53;3.92;;;1.30;;
31674;SDS011;18276;45.520;11.018;2022-11-20T04:31:22;2.40;;;1.67;;
31674;SDS011;18276;45.520;11.018;2022-11-20T04:33:51;2.42;;;1.40;;
31674;SDS011;18276;45.520;11.018;2022-11-20T04:36:22;2.65;;;1.40;;
31674;SDS011;18276;45.520;11.018;2022-11-20T04:38:57;2.92;;;1.73;;
31674;SDS011;18276;45.520;11.018;2022-11-20T04:41:27;3.40;;;2.10;;
31674;SDS011;18276;45.520;11.018;2022-11-20T04:43:56;2.53;;;1.40;;
31674;SDS011;18276;45.520;11.018;2022-11-20T04:46:28;2.42;;;1.40;;
31674;SDS011;18276;45.520;11.018;2022-11-20T04:48:58;3.40;;;1.67;;
31674;SDS011;18276;45.520;11.018;2022-11-20T04:51:26;4.65;;;1.50;;
31674;SDS011;18276;45.520;11.018;2022-11-20T04:53:53;4.57;;;1.58;;
31674;SDS011;18276;45.520;11.018;2022-11-20T04:56:21;4.10;;;1.63;;
31674;SDS011;18276;45.520;11.018;2022-11-20T04:58:48;3.90;;;1.38;;
31674;SDS011;18276;45.520;11.018;2022-11-20T05:01:17;1.83;;;1.30;;
31674;SDS011;18276;45.520;11.018;2022-11-20T05:03:46;2.38;;;1.50;;
31674;SDS011;18276;45.520;11.018;2022-11-20T05:06:14;3.53;;;2.13;;
31674;SDS011;18276;45.520;11.018;2022-11-20T05:08:42;3.92;;;1.75;;
31674;SDS011;18276;45.520;11.018;2022-11-20T05:11:11;5.13;;;1.92;;
31674;SDS011;18276;45.520;11.018;2022-11-20T05:13:40;5.10;;;1.50;;
31674;SDS011;18276;45.520;11.018;2022-11-20T05:16:09;3.55;;;1.55;;
31674;SDS011;18276;45.520;11.018;2022-11-20T05:18:40;1.90;;;1.70;;
31674;SDS011;18276;45.520;11.018;2022-11-20T05:21:09;2.15;;;1.50;;
31674;SDS011;18276;45.520;11.018;2022-11-20T05:23:37;2.95;;;1.60;;
31674;SDS011;18276;45.520;11.018;2022-11-20T05:26:05;2.38;;;1.40;;
31674;SDS011;18276;45.520;11.018;2022-11-20T05:28:34;2.22;;;1.70;;
31674;SDS011;18276;45.520;11.018;2022-11-20T05:31:05;5.63;;;1.92;;
31674;SDS011;18276;45.520;11.018;2022-11-20T05:33:34;5.05;;;1.77;;
31674;SDS011;18276;45.520;11.018;2022-11-20T05:36:05;4.93;;;1.98;;
31674;SDS011;18276;45.520;11.018;2022-11-20T05:38:32;4.13;;;2.22;;
31674;SDS011;18276;45.520;11.018;2022-11-20T05:41:03;2.60;;;1.80;;
31674;SDS011;18276;45.520;11.018;2022-11-20T05:43:33;6.10;;;2.42;;
31674;SDS011;18276;45.520;11.018;2022-11-20T05:46:04;4.28;;;2.40;;
31674;SDS011;18276;45.520;11.018;2022-11-20T05:48:33;3.30;;;2.10;;
31674;SDS011;18276;45.520;11.018;2022-11-20T05:51:03;2.67;;;1.88;;
31674;SDS011;18276;45.520;11.018;2022-11-20T05:53:31;2.70;;;1.95;;
31674;SDS011;18276;45.520;11.018;2022-11-20T05:56:03;3.65;;;1.70;;
31674;SDS011;18276;45.520;11.018;2022-11-20T05:58:32;3.88;;;2.10;;
31674;SDS011;18276;45.520;11.018;2022-11-20T06:01:04;3.28;;;2.00;;
31674;SDS011;18276;45.520;11.018;2022-11-20T06:03:36;4.32;;;2.47;;
31674;SDS011;18276;45.520;11.018;2022-11-20T06:06:04;4.55;;;2.72;;
31674;SDS011;18276;45.520;11.018;2022-11-20T06:08:32;5.25;;;2.45;;
31674;SDS011;18276;45.520;11.018;2022-11-20T06:11:07;3.40;;;2.20;;
31674;SDS011;18276;45.520;11.018;2022-11-20T06:13:35;4.30;;;2.33;;
31674;SDS011;18276;45.520;11.018;2022-11-20T06:16:07;4.55;;;2.40;;
31674;SDS011;18276;45.520;11.018;2022-11-20T06:18:36;4.93;;;2.75;;
31674;SDS011;18276;45.520;11.018;2022-11-20T06:23:31;5.20;;;2.28;;
31674;SDS011;18276;45.520;11.018;2022-11-20T06:26:04;4.95;;;2.58;;
31674;SDS011;18276;45.520;11.018;2022-11-20T06:28:35;5.60;;;2.70;;
31674;SDS011;18276;45.520;11.018;2022-11-20T06:31:03;4.60;;;2.30;;
31674;SDS011;18276;45.520;11.018;2022-11-20T06:33:31;3.28;;;2.38;;
31674;SDS011;18276;45.520;11.018;2022-11-20T06:35:59;4.35;;;2.80;;
31674;SDS011;18276;45.520;11.018;2022-11-20T06:38:32;6.53;;;3.05;;
31674;SDS011;18276;45.520;11.018;2022-11-20T06:40:59;5.50;;;2.60;;
31674;SDS011;18276;45.520;11.018;2022-11-20T06:43:28;6.47;;;2.72;;
31674;SDS011;18276;45.520;11.018;2022-11-20T06:45:56;8.85;;;3.25;;
31674;SDS011;18276;45.520;11.018;2022-11-20T06:48:27;7.00;;;3.17;;
31674;SDS011;18276;45.520;11.018;2022-11-20T06:50:55;3.55;;;2.70;;
31674;SDS011;18276;45.520;11.018;2022-11-20T06:53:23;4.18;;;2.97;;
31674;SDS011;18276;45.520;11.018;2022-11-20T06:55:51;4.97;;;2.83;;
31674;SDS011;18276;45.520;11.018;2022-11-20T06:58:18;8.02;;;3.42;;
31674;SDS011;18276;45.520;11.018;2022-11-20T07:00:46;3.88;;;2.83;;
31674;SDS011;18276;45.520;11.018;2022-11-20T07:03:13;5.30;;;3.30;;
31674;SDS011;18276;45.520;11.018;2022-11-20T07:05:41;6.03;;;2.85;;
31674;SDS011;18276;45.520;11.018;2022-11-20T07:08:08;7.07;;;3.13;;
31674;SDS011;18276;45.520;11.018;2022-11-20T07:10:35;6.07;;;2.80;;
31674;SDS011;18276;45.520;11.018;2022-11-20T07:13:03;3.80;;;2.80;;
31674;SDS011;18276;45.520;11.018;2022-11-20T07:15:30;4.45;;;3.00;;
31674;SDS011;18276;45.520;11.018;2022-11-20T07:17:58;7.70;;;3.17;;
31674;SDS011;18276;45.520;11.018;2022-11-20T07:20:26;6.07;;;3.05;;
31674;SDS011;18276;45.520;11.018;2022-11-20T07:22:54;5.55;;;2.90;;
31674;SDS011;18276;45.520;11.018;2022-11-20T07:25:23;5.57;;;3.00;;
31674;SDS011;18276;45.520;11.018;2022-11-20T07:27:51;5.05;;;2.80;;
31674;SDS011;18276;45.520;11.018;2022-11-20T07:30:18;4.30;;;2.67;;
31674;SDS011;18276;45.520;11.018;2022-11-20T07:32:46;3.75;;;2.90;;
31674;SDS011;18276;45.520;11.018;2022-11-20T07:35:17;4.22;;;3.20;;
31674;SDS011;18276;45.520;11.018;2022-11-20T07:37:45;5.65;;;3.38;;
31674;SDS011;18276;45.520;11.018;2022-11-20T07:40:13;5.55;;;3.00;;
31674;SDS011;18276;45.520;11.018;2022-11-20T07:43:03;6.30;;;3.35;;
31674;SDS011;18276;45.520;11.018;2022-11-20T07:45:28;3.90;;;3.00;;
31674;SDS011;18276;45.520;11.018;2022-11-20T07:47:56;3.95;;;3.08;;
31674;SDS011;18276;45.520;11.018;2022-11-20T07:50:23;3.45;;;2.95;;
31674;SDS011;18276;45.520;11.018;2022-11-20T07:52:50;5.43;;;2.80;;
31674;SDS011;18276;45.520;11.018;2022-11-20T07:55:18;3.45;;;2.83;;
31674;SDS011;18276;45.520;11.018;2022-11-20T07:57:45;3.65;;;2.90;;
31674;SDS011;18276;45.520;11.018;2022-11-20T08:00:13;6.03;;;3.08;;
31674;SDS011;18276;45.520;11.018;2022-11-20T08:02:40;4.45;;;2.78;;
31674;SDS011;18276;45.520;11.018;2022-11-20T08:05:08;7.07;;;3.60;;
31674;SDS011;18276;45.520;11.018;2022-11-20T08:07:39;4.18;;;3.03;;
31674;SDS011;18276;45.520;11.018;2022-11-20T08:10:08;3.50;;;3.10;;
31674;SDS011;18276;45.520;11.018;2022-11-20T08:12:43;5.50;;;3.70;;
31674;SDS011;18276;45.520;11.018;2022-11-20T08:15:31;9.13;;;3.40;;
31674;SDS011;18276;45.520;11.018;2022-11-20T08:17:59;7.82;;;4.30;;
31674;SDS011;18276;45.520;11.018;2022-11-20T08:20:49;5.53;;;3.58;;
31674;SDS011;18276;45.520;11.018;2022-11-20T08:23:16;5.57;;;3.42;;
31674;SDS011;18276;45.520;11.018;2022-11-20T08:25:43;4.55;;;3.35;;
31674;SDS011;18276;45.520;11.018;2022-11-20T08:28:15;5.20;;;3.47;;
31674;SDS011;18276;45.520;11.018;2022-11-20T08:30:47;5.38;;;4.00;;
31674;SDS011;18276;45.520;11.018;2022-11-20T08:33:15;7.47;;;3.75;;
31674;SDS011;18276;45.520;11.018;2022-11-20T08:35:43;7.55;;;4.50;;
31674;SDS011;18276;45.520;11.018;2022-11-20T08:38:11;6.20;;;3.60;;
31674;SDS011;18276;45.520;11.018;2022-11-20T08:40:38;5.53;;;3.80;;
31674;SDS011;18276;45.520;11.018;2022-11-20T08:43:05;6.72;;;4.10;;
31674;SDS011;18276;45.520;11.018;2022-11-20T08:45:32;10.40;;;4.10;;
31674;SDS011;18276;45.520;11.018;2022-11-20T08:48:03;13.25;;;4.70;;
31674;SDS011;18276;45.520;11.018;2022-11-20T08:50:31;10.48;;;4.65;;
31674;SDS011;18276;45.520;11.018;2022-11-20T08:53:05;13.32;;;4.38;;
31674;SDS011;18276;45.520;11.018;2022-11-20T08:55:32;7.35;;;3.47;;
31674;SDS011;18276;45.520;11.018;2022-11-20T08:58:05;4.22;;;3.30;;
31674;SDS011;18276;45.520;11.018;2022-11-20T09:00:33;8.38;;;3.92;;
31674;SDS011;18276;45.520;11.018;2022-11-20T09:03:00;6.20;;;3.53;;
31674;SDS011;18276;45.520;11.018;2022-11-20T09:05:28;6.47;;;4.40;;
31674;SDS011;18276;45.520;11.018;2022-11-20T09:07:58;5.05;;;3.13;;
31674;SDS011;18276;45.520;11.018;2022-11-20T09:10:26;5.57;;;3.35;;
31674;SDS011;18276;45.520;11.018;2022-11-20T09:12:54;6.40;;;4.32;;
31674;SDS011;18276;45.520;11.018;2022-11-20T09:15:22;5.85;;;3.97;;
31674;SDS011;18276;45.520;11.018;2022-11-20T09:20:21;4.05;;;3.42;;
31674;SDS011;18276;45.520;11.018;2022-11-20T09:22:49;6.30;;;3.40;;
31674;SDS011;18276;45.520;11.018;2022-11-20T09:25:16;5.13;;;3.10;;
31674;SDS011;18276;45.520;11.018;2022-11-20T09:27:43;5.63;;;3.85;;
31674;SDS011;18276;45.520;11.018;2022-11-20T09:30:13;10.27;;;5.97;;
31674;SDS011;18276;45.520;11.018;2022-11-20T09:32:41;5.82;;;3.60;;
31674;SDS011;18276;45.520;11.018;2022-11-20T09:35:09;6.22;;;3.50;;
31674;SDS011;18276;45.520;11.018;2022-11-20T09:37:37;3.40;;;2.40;;
31674;SDS011;18276;45.520;11.018;2022-11-20T09:40:04;2.22;;;1.90;;
31674;SDS011;18276;45.520;11.018;2022-11-20T09:47:53;3.28;;;2.22;;
31674;SDS011;18276;45.520;11.018;2022-11-20T09:55:51;2.53;;;2.03;;
31674;SDS011;18276;45.520;11.018;2022-11-20T09:58:22;2.70;;;2.05;;
31674;SDS011;18276;45.520;11.018;2022-11-20T10:00:56;2.83;;;2.08;;
31674;SDS011;18276;45.520;11.018;2022-11-20T10:03:36;2.10;;;1.60;;
31674;SDS011;18276;45.520;11.018;2022-11-20T10:06:32;3.10;;;1.70;;
31674;SDS011;18276;45.520;11.018;2022-11-20T10:14:31;4.20;;;1.88;;
31674;SDS011;18276;45.520;11.018;2022-11-20T10:22:52;2.55;;;1.80;;
31674;SDS011;18276;45.520;11.018;2022-11-20T10:25:36;3.33;;;2.27;;
31674;SDS011;18276;45.520;11.018;2022-11-20T10:31:32;2.45;;;2.03;;
31674;SDS011;18276;45.520;11.018;2022-11-20T10:34:04;4.70;;;2.60;;
31674;SDS011;18276;45.520;11.018;2022-11-20T10:36:52;3.55;;;2.55;;
31674;SDS011;18276;45.520;11.018;2022-11-20T10:42:03;3.78;;;3.10;;
31674;SDS011;18276;45.520;11.018;2022-11-20T10:44:40;5.30;;;2.95;;
31674;SDS011;18276;45.520;11.018;2022-11-20T10:47:31;5.88;;;3.92;;
31674;SDS011;18276;45.520;11.018;2022-11-20T10:50:01;4.90;;;2.83;;
31674;SDS011;18276;45.520;11.018;2022-11-20T11:00:15;3.97;;;2.60;;
31674;SDS011;18276;45.520;11.018;2022-11-20T11:02:50;2.95;;;2.55;;
31674;SDS011;18276;45.520;11.018;2022-11-20T11:07:53;4.22;;;3.00;;
31674;SDS011;18276;45.520;11.018;2022-11-20T11:12:55;3.17;;;2.85;;
31674;SDS011;18276;45.520;11.018;2022-11-20T11:15:26;3.25;;;2.85;;
31674;SDS011;18276;45.520;11.018;2022-11-20T11:17:53;3.53;;;2.78;;
31674;SDS011;18276;45.520;11.018;2022-11-20T11:20:22;4.78;;;3.03;;
31674;SDS011;18276;45.520;11.018;2022-11-20T11:22:54;3.83;;;2.75;;
31674;SDS011;18276;45.520;11.018;2022-11-20T11:27:53;3.35;;;2.30;;
31674;SDS011;18276;45.520;11.018;2022-11-20T11:30:22;3.78;;;2.97;;
31674;SDS011;18276;45.520;11.018;2022-11-20T11:33:02;4.18;;;2.97;;
31674;SDS011;18276;45.520;11.018;2022-11-20T11:35:33;2.95;;;2.65;;
31674;SDS011;18276;45.520;11.018;2022-11-20T11:38:06;5.40;;;2.80;;
31674;SDS011;18276;45.520;11.018;2022-11-20T11:40:39;3.42;;;2.95;;
31674;SDS011;18276;45.520;11.018;2022-11-20T11:43:15;3.15;;;2.85;;
31674;SDS011;18276;45.520;11.018;2022-11-20T11:46:05;4.70;;;2.63;;
31674;SDS011;18276;45.520;11.018;2022-11-20T11:51:26;2.83;;;2.40;;
31674;SDS011;18276;45.520;11.018;2022-11-20T11:54:02;4.32;;;2.45;;
31674;SDS011;18276;45.520;11.018;2022-11-20T11:56:31;6.10;;;3.58;;
31674;SDS011;18276;45.520;11.018;2022-11-20T11:59:00;3.22;;;2.90;;
31674;SDS011;18276;45.520;11.018;2022-11-20T12:27:39;3.70;;;3.13;;
31674;SDS011;18276;45.520;11.018;2022-11-20T12:30:18;6.05;;;4.50;;
31674;SDS011;18276;45.520;11.018;2022-11-20T12:55:42;4.10;;;2.75;;
31674;SDS011;18276;45.520;11.018;2022-11-20T13:11:55;3.50;;;3.00;;
31674;SDS011;18276;45.520;11.018;2022-11-20T13:19:57;4.07;;;3.20;;
31674;SDS011;18276;45.520;11.018;2022-11-20T13:22:28;4.60;;;3.58;;
31674;SDS011;18276;45.520;11.018;2022-11-20T13:25:29;5.10;;;3.80;;
31674;SDS011;18276;45.520;11.018;2022-11-20T13:27:56;5.93;;;4.03;;
31674;SDS011;18276;45.520;11.018;2022-11-20T13:30:26;8.35;;;4.70;;
31674;SDS011;18276;45.520;11.018;2022-11-20T13:32:55;8.20;;;6.00;;
31674;SDS011;18276;45.520;11.018;2022-11-20T13:35:27;7.40;;;5.70;;
31674;SDS011;18276;45.520;11.018;2022-11-20T13:38:09;9.05;;;6.43;;
31674;SDS011;18276;45.520;11.018;2022-11-20T13:41:00;8.15;;;5.13;;
31674;SDS011;18276;45.520;11.018;2022-11-20T13:43:47;15.20;;;8.82;;
31674;SDS011;18276;45.520;11.018;2022-11-20T13:46:14;14.90;;;9.80;;
31674;SDS011;18276;45.520;11.018;2022-11-20T13:48:45;20.85;;;13.05;;
31674;SDS011;18276;45.520;11.018;2022-11-20T13:54:40;21.33;;;13.10;;
31674;SDS011;18276;45.520;11.018;2022-11-20T14:00:07;23.42;;;14.75;;
31674;SDS011;18276;45.520;11.018;2022-11-20T14:02:42;23.88;;;14.95;;
31674;SDS011;18276;45.520;11.018;2022-11-20T14:05:17;24.42;;;15.07;;
31674;SDS011;18276;45.520;11.018;2022-11-20T14:07:50;32.07;;;18.50;;
31674;SDS011;18276;45.520;11.018;2022-11-20T14:15:36;31.52;;;18.08;;
31674;SDS011;18276;45.520;11.018;2022-11-20T14:18:11;27.90;;;17.42;;
31674;SDS011;18276;45.520;11.018;2022-11-20T14:20:40;25.92;;;17.17;;
31674;SDS011;18276;45.520;11.018;2022-11-20T14:23:10;27.58;;;16.98;;
31674;SDS011;18276;45.520;11.018;2022-11-20T14:25:41;27.52;;;18.25;;
31674;SDS011;18276;45.520;11.018;2022-11-20T14:28:11;29.35;;;19.73;;
31674;SDS011;18276;45.520;11.018;2022-11-20T14:30:50;28.30;;;18.25;;
31674;SDS011;18276;45.520;11.018;2022-11-20T14:33:17;31.05;;;17.75;;
31674;SDS011;18276;45.520;11.018;2022-11-20T14:35:49;31.27;;;18.08;;
31674;SDS011;18276;45.520;11.018;2022-11-20T14:38:24;31.10;;;18.63;;
31674;SDS011;18276;45.520;11.018;2022-11-20T14:40:53;30.73;;;18.40;;
31674;SDS011;18276;45.520;11.018;2022-11-20T14:43:24;31.73;;;19.73;;
31674;SDS011;18276;45.520;11.018;2022-11-20T14:45:57;34.25;;;20.75;;
31674;SDS011;18276;45.520;11.018;2022-11-20T14:48:28;29.80;;;19.10;;
31674;SDS011;18276;45.520;11.018;2022-11-20T14:51:02;33.88;;;19.95;;
31674;SDS011;18276;45.520;11.018;2022-11-20T14:53:29;31.02;;;19.73;;
31674;SDS011;18276;45.520;11.018;2022-11-20T14:56:00;41.70;;;20.30;;
31674;SDS011;18276;45.520;11.018;2022-11-20T14:58:30;36.55;;;19.88;;
31674;SDS011;18276;45.520;11.018;2022-11-20T15:03:39;33.55;;;20.38;;
31674;SDS011;18276;45.520;11.018;2022-11-20T15:06:07;34.38;;;19.65;;
31674;SDS011;18276;45.520;11.018;2022-11-20T15:08:37;31.90;;;17.95;;
31674;SDS011;18276;45.520;11.018;2022-11-20T15:11:15;35.80;;;20.00;;
31674;SDS011;18276;45.520;11.018;2022-11-20T15:13:45;33.08;;;19.73;;
31674;SDS011;18276;45.520;11.018;2022-11-20T15:16:15;34.00;;;18.60;;
31674;SDS011;18276;45.520;11.018;2022-11-20T15:18:45;35.08;;;18.58;;
31674;SDS011;18276;45.520;11.018;2022-11-20T15:21:14;31.83;;;18.08;;
31674;SDS011;18276;45.520;11.018;2022-11-20T15:23:43;34.67;;;19.58;;
31674;SDS011;18276;45.520;11.018;2022-11-20T15:26:11;29.38;;;17.48;;
31674;SDS011;18276;45.520;11.018;2022-11-20T15:28:46;29.48;;;18.10;;
31674;SDS011;18276;45.520;11.018;2022-11-20T15:31:19;30.58;;;17.60;;
31674;SDS011;18276;45.520;11.018;2022-11-20T15:33:49;32.75;;;18.50;;
31674;SDS011;18276;45.520;11.018;2022-11-20T15:36:16;33.92;;;18.77;;
31674;SDS011;18276;45.520;11.018;2022-11-20T15:38:43;34.17;;;19.92;;
31674;SDS011;18276;45.520;11.018;2022-11-20T15:41:10;39.25;;;22.23;;
31674;SDS011;18276;45.520;11.018;2022-11-20T15:43:37;38.22;;;20.05;;
31674;SDS011;18276;45.520;11.018;2022-11-20T15:46:06;37.58;;;19.55;;
31674;SDS011;18276;45.520;11.018;2022-11-20T15:51:20;34.30;;;19.85;;
31674;SDS011;18276;45.520;11.018;2022-11-20T15:53:54;34.90;;;20.35;;
31674;SDS011;18276;45.520;11.018;2022-11-20T15:56:21;36.05;;;19.08;;
31674;SDS011;18276;45.520;11.018;2022-11-20T15:58:49;33.20;;;18.50;;
31674;SDS011;18276;45.520;11.018;2022-11-20T16:01:19;39.13;;;20.90;;
31674;SDS011;18276;45.520;11.018;2022-11-20T16:03:48;30.40;;;18.92;;
31674;SDS011;18276;45.520;11.018;2022-11-20T16:06:15;37.30;;;20.45;;
31674;SDS011;18276;45.520;11.018;2022-11-20T16:08:42;35.10;;;21.77;;
31674;SDS011;18276;45.520;11.018;2022-11-20T16:11:13;37.67;;;20.50;;
31674;SDS011;18276;45.520;11.018;2022-11-20T16:13:42;34.65;;;19.10;;
31674;SDS011;18276;45.520;11.018;2022-11-20T16:16:41;33.25;;;18.38;;
31674;SDS011;18276;45.520;11.018;2022-11-20T16:19:12;31.25;;;17.23;;
31674;SDS011;18276;45.520;11.018;2022-11-20T16:21:40;32.80;;;18.30;;
31674;SDS011;18276;45.520;11.018;2022-11-20T16:24:09;29.08;;;17.05;;
31674;SDS011;18276;45.520;11.018;2022-11-20T16:26:38;34.55;;;19.10;;
31674;SDS011;18276;45.520;11.018;2022-11-20T16:29:05;34.22;;;16.98;;
31674;SDS011;18276;45.520;11.018;2022-11-20T16:31:33;30.23;;;17.73;;
31674;SDS011;18276;45.520;11.018;2022-11-20T16:34:03;30.60;;;18.15;;
31674;SDS011;18276;45.520;11.018;2022-11-20T16:36:41;29.20;;;17.67;;
31674;SDS011;18276;45.520;11.018;2022-11-20T16:39:10;33.63;;;18.35;;
31674;SDS011;18276;45.520;11.018;2022-11-20T16:41:38;34.55;;;18.73;;
31674;SDS011;18276;45.520;11.018;2022-11-20T16:44:09;33.47;;;18.90;;
31674;SDS011;18276;45.520;11.018;2022-11-20T16:46:37;35.17;;;20.65;;
31674;SDS011;18276;45.520;11.018;2022-11-20T16:49:08;38.65;;;22.63;;
31674;SDS011;18276;45.520;11.018;2022-11-20T16:51:39;46.50;;;24.58;;
31674;SDS011;18276;45.520;11.018;2022-11-20T16:54:07;36.28;;;21.65;;
31674;SDS011;18276;45.520;11.018;2022-11-20T16:56:35;45.85;;;24.35;;
31674;SDS011;18276;45.520;11.018;2022-11-20T16:59:02;41.58;;;23.13;;
31674;SDS011;18276;45.520;11.018;2022-11-20T17:01:30;42.17;;;23.75;;
31674;SDS011;18276;45.520;11.018;2022-11-20T17:03:58;40.17;;;24.15;;
31674;SDS011;18276;45.520;11.018;2022-11-20T17:06:27;38.65;;;22.80;;
31674;SDS011;18276;45.520;11.018;2022-11-20T17:08:57;39.97;;;23.73;;
31674;SDS011;18276;45.520;11.018;2022-11-20T17:11:25;50.53;;;25.20;;
31674;SDS011;18276;45.520;11.018;2022-11-20T17:13:55;49.97;;;25.95;;
31674;SDS011;18276;45.520;11.018;2022-11-20T17:16:26;44.03;;;24.15;;